Capetown, CA

6:48 PM PST on January 17, 2017 (GMT -0800)
5th and Pixley | | Change Station

Elev 56 ft 40.58 °N, 124.27 °W | Updated 21 seconds ago

Overcast
Overcast
52.3 °F
Feels Like 52.3 °F
N
3.2
Wind Variable Wind from South

Today
High -- | Low -- °F
--% Chance of Precip.
Yesterday
High -- | Low -- °F
Precip. -- in
Pressure 29.97 in
Visibility 10.0 miles
Clouds Few 5500 ft
Overcast 7500 ft
Dew Point 41 °F
Humidity 66%
Rainfall 0.00 in
Snow Depth Not available.
7:37 AM 5:17 PM
Waning Gibbous, 67% visible
METAR KFOT 180235Z AUTO 14014G22KT 10SM FEW055 OVC075 12/02 A2997 RMK AO1
Pressure 29.97 in
Visibility 10.0 miles
Clouds Few 5500 ft
Overcast 7500 ft
Dew Point 41 °F
Humidity 66%
Rainfall 0.00 in
Snow Depth Not available.
7:37 AM 5:17 PM
Waning Gibbous, 67% visible
METAR KFOT 180235Z AUTO 14014G22KT 10SM FEW055 OVC075 12/02 A2997 RMK AO1

Get Your Daily Forecast Email!

Thanks for signing up!

Be on the lookout for a verification email in your inbox.

You'll start receiving the daily forecast at 8 AM.

×

10-Day Weather Forecast

Almanac

Astronomy

Jan. 17, 2017 Rise Set
Actual Time
Civil Twilight
Nautical Twilight
Astronomical Twilight
Moon
Length of Visible Light
Length of Day
Tomorrow will be .
, % of the Moon is Illuminated

Today's Extremes

State Highs State Lows

Community

WunderPhotos

Upload Photos

1,962,540 photos uploaded!

WunderBlog® & News

Nearby

Air Quality

  Air Quality AQ Index Pollutant
Not available.

Snow Depth

Station Depth Elevation

Earthquake Activity

City Distance Mag. Time & Date
Minimum magnitude displayed is 2.5.

Coastal Water Temperatures

Place Temperature

Stations

Nearby Weather Stations

Station Location Temp. Windchill Dew Point Humidity Wind Precip. Elev Updated Type
                   

Watches & Warnings

Small Craft Advisory, Gale Warning
Issued: 3:02 PM PST Jan. 17, 2017 – National Weather Service

... Small Craft Advisory remains in effect until 3 am PST
Wednesday...
... Gale Warning remains in effect from 3 am to 3 PM PST
Wednesday...

* winds... south 10 to 20 kt increasing to 15 to 25 kt with gusts
up to 40 kt tonight. Winds will increase to 20 to 30 kt with
gust around 40 kt on Wednesday. Strongest winds will be near
Cape Mendocino and Point Saint George. Winds will diminish
Wednesday night.

* Waves/seas... seas 6 to 8 feet at 14 seconds building to 11 to
14 feet around 14 seconds tonight then around 15 feet at 13
seconds on Wednesday. Seas will build to 25 feet or higher
around 18 seconds on Friday.

Precautionary/preparedness actions...

A Small Craft Advisory means that wind speeds of 21 to 33 knots
are expected to produce hazardous wave conditions to small craft.
Inexperienced mariners... especially those operating smaller
vessels should avoid navigating in these conditions.